Time;durP1;ratioP1;P1;durP2;ratioP2;P2;SDS_P1;SDS_P2;PMS_P1;PMS_P2;Temp;Humidity;BMP_temperature;BMP_pressure;BME280_temperature;BME280_humidity;BME280_pressure;Samples;Min_cycle;Max_cycle;Signal;HPM_P1;HPM_P2
2022/02/18 00:00:43;;;;;;;16.00;3.58;;;9.10;99.90;;;;;;5043433;28;20030;-80
2022/02/18 00:03:09;;;;;;;13.75;4.05;;;9.10;99.90;;;;;;5040296;28;20048;-79
2022/02/18 00:05:35;;;;;;;19.08;4.50;;;9.00;99.90;;;;;;5045089;28;20029;-78
2022/02/18 00:08:01;;;;;;;19.20;3.35;;;9.00;99.90;;;;;;5039531;28;20104;-79
2022/02/18 00:10:26;;;;;;;18.60;4.78;;;8.80;99.90;;;;;;5037685;28;20172;-79
2022/02/18 00:12:52;;;;;;;20.05;4.22;;;8.80;99.90;;;;;;5037853;28;20097;-78
2022/02/18 00:15:17;;;;;;;22.45;5.00;;;8.70;99.90;;;;;;5041907;28;20157;-81
2022/02/18 00:17:43;;;;;;;19.90;4.50;;;8.60;99.90;;;;;;5042461;28;20090;-77
2022/02/18 00:20:10;;;;;;;15.63;3.13;;;8.70;99.90;;;;;;5031529;28;20088;-78
2022/02/18 00:22:36;;;;;;;14.80;3.25;;;8.60;99.90;;;;;;5050814;28;20097;-77
2022/02/18 00:25:03;;;;;;;18.92;3.80;;;8.70;99.90;;;;;;5025975;28;20029;-76
2022/02/18 00:27:28;;;;;;;26.02;6.88;;;8.70;99.90;;;;;;5046047;28;20045;-77
2022/02/18 00:29:55;;;;;;;25.55;3.90;;;8.70;99.90;;;;;;5039291;28;20025;-77
2022/02/18 00:32:21;;;;;;;13.68;3.58;;;8.80;99.90;;;;;;5028951;28;20039;-80
2022/02/18 00:34:46;;;;;;;17.08;4.45;;;8.80;99.90;;;;;;5030203;28;20033;-79
2022/02/18 00:37:13;;;;;;;12.65;3.50;;;8.80;99.90;;;;;;5027800;28;20025;-81
2022/02/18 00:39:40;;;;;;;16.35;3.35;;;8.80;99.90;;;;;;5036932;28;20017;-75
2022/02/18 00:42:06;;;;;;;14.43;3.55;;;8.90;99.90;;;;;;5040206;28;20040;-79
2022/02/18 00:44:32;;;;;;;15.23;4.13;;;8.80;99.90;;;;;;5037675;28;20010;-80
2022/02/18 00:46:57;;;;;;;24.83;3.85;;;8.90;99.90;;;;;;5041009;28;20045;-79
2022/02/18 00:49:23;;;;;;;15.90;3.38;;;9.00;99.90;;;;;;5027338;28;20018;-79
2022/02/18 00:51:48;;;;;;;15.88;3.90;;;9.00;99.90;;;;;;5033365;28;20064;-80
2022/02/18 00:54:14;;;;;;;19.38;4.28;;;9.00;99.90;;;;;;5028747;28;20129;-81
2022/02/18 00:56:44;;;;;;;15.25;3.75;;;9.00;99.90;;;;;;5057283;28;20488;-79
2022/02/18 00:59:10;;;;;;;16.63;3.55;;;9.00;99.90;;;;;;5051084;28;20037;-80
2022/02/18 01:01:36;;;;;;;11.43;3.13;;;9.00;99.90;;;;;;5060384;28;20055;-80
2022/02/18 01:04:03;;;;;;;20.35;3.65;;;9.00;99.90;;;;;;5040102;28;20081;-82
2022/02/18 01:06:29;;;;;;;18.00;3.30;;;9.10;99.90;;;;;;5033407;28;20017;-80
2022/02/18 01:08:55;;;;;;;19.30;5.57;;;9.10;99.90;;;;;;5037801;28;20009;-81
2022/02/18 01:11:21;;;;;;;25.25;3.05;;;9.20;99.90;;;;;;5033530;28;20022;-80
2022/02/18 01:13:48;;;;;;;18.60;4.00;;;9.10;99.90;;;;;;5047175;28;20037;-80
2022/02/18 01:16:14;;;;;;;13.50;3.13;;;9.10;99.90;;;;;;5029955;28;20127;-80
2022/02/18 01:18:41;;;;;;;20.33;3.85;;;9.10;99.90;;;;;;5033302;28;20401;-80
2022/02/18 01:21:06;;;;;;;14.40;4.95;;;9.10;99.90;;;;;;5032342;28;20034;-81
2022/02/18 01:23:32;;;;;;;16.48;3.67;;;9.10;99.90;;;;;;5024180;28;20499;-81
2022/02/18 01:25:58;;;;;;;12.40;3.13;;;9.10;99.90;;;;;;5032075;28;20401;-80
2022/02/18 01:28:23;;;;;;;11.50;3.00;;;9.10;99.90;;;;;;5025538;28;20053;-81
2022/02/18 01:30:49;;;;;;;13.73;3.20;;;9.20;99.90;;;;;;5029175;28;20097;-81
2022/02/18 01:33:14;;;;;;;18.05;3.38;;;9.20;99.90;;;;;;5030625;28;20030;-80
2022/02/18 01:35:40;;;;;;;12.63;3.55;;;9.20;99.90;;;;;;5026371;28;20458;-80
2022/02/18 01:38:06;;;;;;;21.08;3.70;;;9.20;99.90;;;;;;5026729;28;20030;-81
2022/02/18 01:40:32;;;;;;;14.27;4.55;;;9.20;99.90;;;;;;5032581;28;20034;-80
2022/02/18 01:42:58;;;;;;;13.45;3.03;;;9.20;99.90;;;;;;5027940;28;20513;-79
2022/02/18 01:45:25;;;;;;;19.10;3.80;;;9.20;99.90;;;;;;5023657;28;20029;-81
2022/02/18 01:47:51;;;;;;;15.23;4.15;;;9.20;99.90;;;;;;5025616;28;20482;-81
2022/02/18 01:50:18;;;;;;;19.52;3.38;;;9.20;99.90;;;;;;5040830;28;20458;-80
2022/02/18 01:52:50;;;;;;;18.70;3.08;;;9.20;99.90;;;;;;5030460;28;20030;-81
2022/02/18 01:55:16;;;;;;;15.00;2.95;;;9.20;99.90;;;;;;5042344;28;20033;-81
2022/02/18 01:57:53;;;;;;;16.63;3.35;;;9.30;99.90;;;;;;5030827;28;20022;-81
2022/02/18 02:00:22;;;;;;;12.50;2.95;;;9.30;99.90;;;;;;5025175;28;20405;-81
2022/02/18 02:02:49;;;;;;;16.23;3.17;;;9.30;99.90;;;;;;5027369;28;20121;-80
2022/02/18 02:05:16;;;;;;;16.25;3.40;;;9.30;99.90;;;;;;5026499;28;20018;-81
2022/02/18 02:07:45;;;;;;;13.00;2.47;;;9.30;99.90;;;;;;5030188;28;20037;-80
2022/02/18 02:10:13;;;;;;;16.67;3.28;;;9.20;99.90;;;;;;5049222;28;20036;-81
2022/02/18 02:12:52;;;;;;;13.60;3.10;;;9.30;99.90;;;;;;5044153;28;20024;-80
2022/02/18 02:15:24;;;;;;;14.93;3.42;;;9.30;99.90;;;;;;5047971;28;20066;-80
2022/02/18 02:17:50;;;;;;;12.60;3.08;;;9.30;99.90;;;;;;5048310;28;20017;-81
2022/02/18 02:20:17;;;;;;;16.02;3.08;;;9.30;99.90;;;;;;5042433;28;20048;-81
2022/02/18 02:22:43;;;;;;;18.75;3.85;;;9.30;99.90;;;;;;5032045;28;20028;-79
2022/02/18 02:25:09;;;;;;;11.10;3.13;;;9.30;99.90;;;;;;5042709;28;20034;-79
2022/02/18 02:27:34;;;;;;;17.17;3.58;;;9.30;99.90;;;;;;5040782;28;20084;-80
2022/02/18 02:30:00;;;;;;;16.38;4.63;;;9.30;99.90;;;;;;5033070;28;20049;-80
2022/02/18 02:32:26;;;;;;;15.18;3.15;;;9.20;99.90;;;;;;5026720;28;20120;-80
2022/02/18 02:34:52;;;;;;;13.13;3.67;;;9.20;99.90;;;;;;5025356;28;20049;-80
2022/02/18 02:37:18;;;;;;;16.63;4.00;;;9.20;99.90;;;;;;5029485;28;20244;-79
2022/02/18 02:39:44;;;;;;;17.05;4.30;;;9.20;99.90;;;;;;5017840;28;20081;-81
2022/02/18 02:42:10;;;;;;;13.15;2.65;;;9.10;99.90;;;;;;5032465;28;20374;-81
2022/02/18 02:44:36;;;;;;;16.67;3.38;;;9.10;99.90;;;;;;5034563;28;22079;-81
2022/02/18 02:47:02;;;;;;;12.93;2.88;;;9.10;99.90;;;;;;5029124;28;20037;-81
2022/02/18 02:49:28;;;;;;;17.83;4.05;;;9.10;99.90;;;;;;5034383;28;20026;-80
2022/02/18 02:51:54;;;;;;;13.43;3.00;;;9.20;99.90;;;;;;5037387;28;20040;-81
2022/02/18 02:54:20;;;;;;;17.02;3.42;;;9.10;99.90;;;;;;5029837;28;20084;-79
2022/02/18 02:56:45;;;;;;;15.10;2.78;;;9.10;99.90;;;;;;5028556;28;20040;-79
2022/02/18 02:59:11;;;;;;;15.77;3.55;;;9.00;99.90;;;;;;5040547;28;20449;-80
2022/02/18 03:01:37;;;;;;;17.83;3.85;;;9.00;99.90;;;;;;5032510;28;20113;-81
2022/02/18 03:04:03;;;;;;;16.13;3.00;;;9.00;99.90;;;;;;5022397;28;20108;-80
2022/02/18 03:06:28;;;;;;;17.80;4.32;;;9.00;99.90;;;;;;5025461;28;20520;-79
2022/02/18 03:08:54;;;;;;;14.68;4.28;;;9.00;99.90;;;;;;5028801;28;20029;-80
2022/02/18 03:11:21;;;;;;;14.75;3.83;;;9.00;99.90;;;;;;5031381;28;20090;-81
2022/02/18 03:13:50;;;;;;;12.65;2.95;;;9.00;99.90;;;;;;5029244;28;20082;-80
2022/02/18 03:16:17;;;;;;;22.02;4.80;;;8.90;99.90;;;;;;5033248;28;20056;-80
2022/02/18 03:18:43;;;;;;;20.00;3.20;;;9.00;99.90;;;;;;5034492;28;20036;-80
2022/02/18 03:21:09;;;;;;;18.45;3.20;;;8.90;99.90;;;;;;5030936;28;20025;-80
2022/02/18 03:23:36;;;;;;;11.02;2.88;;;8.80;99.90;;;;;;5035804;28;20025;-80
2022/02/18 03:26:01;;;;;;;17.33;3.28;;;8.80;99.90;;;;;;5030490;28;20026;-80
2022/02/18 03:28:27;;;;;;;11.27;3.00;;;8.70;99.90;;;;;;5041585;28;20044;-80
2022/02/18 03:30:53;;;;;;;14.05;3.92;;;8.70;99.90;;;;;;5026507;28;20059;-80
2022/02/18 03:33:18;;;;;;;13.13;2.95;;;8.60;99.90;;;;;;5030903;28;20026;-80
2022/02/18 03:35:45;;;;;;;12.95;4.40;;;8.50;99.90;;;;;;5032668;28;20535;-80
2022/02/18 03:38:10;;;;;;;17.67;2.88;;;8.40;99.90;;;;;;5033938;28;20025;-79
2022/02/18 03:40:36;;;;;;;16.77;2.92;;;8.30;99.90;;;;;;5041645;28;20398;-80
2022/02/18 03:43:02;;;;;;;12.18;3.05;;;8.30;99.90;;;;;;5036849;28;20041;-79
2022/02/18 03:45:28;;;;;;;14.68;2.40;;;8.30;99.90;;;;;;5038118;28;20018;-79
2022/02/18 03:47:53;;;;;;;10.25;3.33;;;8.20;99.90;;;;;;5046447;28;20063;-79
2022/02/18 03:50:20;;;;;;;14.15;3.50;;;8.20;99.90;;;;;;5040639;28;20067;-78
2022/02/18 03:52:45;;;;;;;14.55;2.78;;;8.20;99.90;;;;;;5033449;28;20486;-79
2022/02/18 03:55:12;;;;;;;17.15;5.18;;;8.20;99.90;;;;;;5043135;28;20105;-80
2022/02/18 03:57:37;;;;;;;15.27;3.20;;;8.30;99.90;;;;;;5037129;28;20021;-79
2022/02/18 04:00:07;;;;;;;11.10;2.95;;;8.40;99.90;;;;;;5036545;28;20029;-80
2022/02/18 04:02:33;;;;;;;14.63;3.28;;;8.40;99.90;;;;;;5033459;28;20393;-80
2022/02/18 04:04:59;;;;;;;12.93;4.68;;;8.40;99.90;;;;;;5037641;28;20032;-80
2022/02/18 04:07:24;;;;;;;16.20;3.38;;;8.40;99.90;;;;;;5038164;28;20021;-80
2022/02/18 04:09:50;;;;;;;15.57;4.28;;;8.40;99.90;;;;;;5045381;28;20025;-81
2022/02/18 04:12:16;;;;;;;12.50;2.97;;;8.40;99.90;;;;;;5040706;28;20109;-80
2022/02/18 04:14:41;;;;;;;15.55;2.47;;;8.50;99.90;;;;;;5037368;28;20033;-79
2022/02/18 04:17:07;;;;;;;14.52;4.93;;;8.50;99.90;;;;;;5049879;28;20018;-81
2022/02/18 04:19:32;;;;;;;14.52;2.47;;;8.50;99.90;;;;;;5040293;28;20171;-79
2022/02/18 04:21:58;;;;;;;18.65;3.30;;;8.50;99.90;;;;;;5051452;28;20065;-80
2022/02/18 04:24:23;;;;;;;9.80;2.95;;;8.60;99.90;;;;;;5039917;28;20022;-78
2022/02/18 04:26:49;;;;;;;12.27;3.35;;;8.60;99.90;;;;;;5032274;28;20548;-80
2022/02/18 04:29:14;;;;;;;11.02;2.25;;;8.50;99.90;;;;;;5029555;28;20501;-80
2022/02/18 04:31:40;;;;;;;10.02;3.53;;;8.40;99.90;;;;;;5027625;28;20034;-80
2022/02/18 04:34:05;;;;;;;6.22;3.03;;;8.30;99.90;;;;;;5025946;28;20462;-80
2022/02/18 04:36:31;;;;;;;12.80;2.92;;;8.40;99.90;;;;;;5031764;28;20477;-80
2022/02/18 04:38:56;;;;;;;12.93;2.22;;;8.50;99.90;;;;;;5027808;28;20033;-80
2022/02/18 04:41:23;;;;;;;18.13;3.25;;;8.50;99.90;;;;;;5027513;28;20650;-80
2022/02/18 04:43:48;;;;;;;16.42;5.80;;;8.50;99.90;;;;;;5020013;28;20430;-80
2022/02/18 04:46:14;;;;;;;14.57;2.80;;;8.50;99.90;;;;;;5026311;28;20053;-79
2022/02/18 04:48:39;;;;;;;15.55;2.83;;;8.50;99.90;;;;;;5030429;28;20083;-80
2022/02/18 04:51:05;;;;;;;19.83;3.65;;;8.60;99.90;;;;;;5023514;28;20022;-80
2022/02/18 04:53:30;;;;;;;10.88;3.67;;;8.60;99.90;;;;;;5032326;28;20021;-80
2022/02/18 04:55:56;;;;;;;10.45;2.92;;;8.60;99.90;;;;;;5030004;28;20112;-80
2022/02/18 04:58:21;;;;;;;11.70;3.42;;;8.60;99.90;;;;;;5029528;28;20108;-80
2022/02/18 05:00:47;;;;;;;8.13;2.45;;;8.60;99.90;;;;;;5036950;28;20029;-80
2022/02/18 05:03:13;;;;;;;16.80;2.63;;;8.70;99.90;;;;;;5028090;28;20017;-80
2022/02/18 05:05:38;;;;;;;14.90;2.53;;;8.80;99.90;;;;;;5030274;28;20141;-81
2022/02/18 05:08:04;;;;;;;16.48;2.88;;;8.80;99.90;;;;;;5025569;28;20026;-80
2022/02/18 05:10:30;;;;;;;15.27;3.10;;;8.90;99.90;;;;;;5030225;28;20030;-80
2022/02/18 05:12:55;;;;;;;11.40;3.33;;;8.90;99.90;;;;;;5024996;28;20040;-80
2022/02/18 05:15:21;;;;;;;18.00;2.85;;;8.90;99.90;;;;;;5036558;28;20413;-80
2022/02/18 05:17:48;;;;;;;16.05;2.72;;;8.90;99.90;;;;;;5027925;28;20029;-79
2022/02/18 05:20:16;;;;;;;12.30;3.30;;;8.90;99.90;;;;;;5023624;28;20404;-80
2022/02/18 05:22:42;;;;;;;15.43;3.30;;;9.00;99.90;;;;;;5025355;28;20026;-82
2022/02/18 05:25:07;;;;;;;15.98;4.35;;;9.00;99.90;;;;;;5026462;28;20378;-81
2022/02/18 05:27:33;;;;;;;11.60;2.55;;;9.00;99.90;;;;;;5031799;28;20021;-80
2022/02/18 05:29:58;;;;;;;20.30;3.72;;;9.00;99.90;;;;;;5027329;28;20044;-81
2022/02/18 05:32:24;;;;;;;16.80;2.90;;;9.00;99.90;;;;;;5027556;28;20041;-79
2022/02/18 05:34:49;;;;;;;13.07;2.70;;;8.90;99.90;;;;;;5025895;28;20025;-81
2022/02/18 05:37:15;;;;;;;12.65;2.78;;;8.90;99.90;;;;;;5020404;28;20033;-81
2022/02/18 05:39:41;;;;;;;14.18;3.33;;;9.00;99.90;;;;;;5029952;28;20089;-80
2022/02/18 05:42:07;;;;;;;12.57;3.80;;;9.10;99.90;;;;;;5043604;28;20032;-80
2022/02/18 05:44:34;;;;;;;11.35;2.15;;;9.20;99.90;;;;;;5034051;28;20536;-81
2022/02/18 05:47:00;;;;;;;14.95;3.17;;;9.10;99.90;;;;;;5026740;28;20026;-80
2022/02/18 05:49:30;;;;;;;14.85;2.70;;;9.00;99.90;;;;;;5028173;28;20021;-80
2022/02/18 05:51:56;;;;;;;8.25;2.45;;;9.10;99.90;;;;;;5030652;28;20034;-81
2022/02/18 05:54:22;;;;;;;15.70;2.88;;;9.00;99.90;;;;;;5024826;28;20033;-81
2022/02/18 05:56:50;;;;;;;11.88;2.63;;;9.00;99.90;;;;;;5034888;28;20437;-80
2022/02/18 05:59:16;;;;;;;14.05;3.17;;;9.10;99.90;;;;;;5028967;28;20026;-79
2022/02/18 06:01:44;;;;;;;9.65;2.55;;;9.00;99.90;;;;;;5024048;28;20026;-81
2022/02/18 06:04:11;;;;;;;15.13;2.95;;;9.10;99.90;;;;;;5027404;28;20018;-81
2022/02/18 06:06:38;;;;;;;18.02;3.05;;;9.00;99.90;;;;;;5019692;28;20022;-80
2022/02/18 06:09:03;;;;;;;16.05;3.13;;;9.00;99.90;;;;;;5031089;28;20053;-80
2022/02/18 06:11:29;;;;;;;15.20;3.58;;;9.10;99.90;;;;;;5032809;28;20032;-79
2022/02/18 06:13:54;;;;;;;19.63;2.88;;;9.20;99.90;;;;;;5029050;28;20489;-80
2022/02/18 06:16:20;;;;;;;12.88;3.42;;;9.20;99.90;;;;;;5027557;28;20049;-81
2022/02/18 06:18:46;;;;;;;15.57;2.45;;;9.20;99.90;;;;;;5028761;28;20485;-81
2022/02/18 06:21:11;;;;;;;13.15;3.33;;;9.20;99.90;;;;;;5027843;28;20105;-81
2022/02/18 06:23:37;;;;;;;11.27;3.75;;;9.20;99.90;;;;;;5023337;28;20026;-80
2022/02/18 06:26:02;;;;;;;18.38;3.42;;;9.20;99.90;;;;;;5028218;28;20541;-80
2022/02/18 06:28:28;;;;;;;13.65;2.55;;;9.20;99.90;;;;;;5024781;28;20426;-80
2022/02/18 06:30:53;;;;;;;7.32;2.65;;;9.20;99.90;;;;;;5020415;28;20049;-79
2022/02/18 06:33:19;;;;;;;13.07;2.80;;;9.20;99.90;;;;;;5029666;28;20030;-80
2022/02/18 06:35:44;;;;;;;11.93;4.47;;;9.20;99.90;;;;;;5025223;28;20025;-80
2022/02/18 06:38:11;;;;;;;12.25;2.55;;;9.20;99.90;;;;;;5031086;28;20034;-78
2022/02/18 06:40:37;;;;;;;11.63;2.55;;;9.30;99.90;;;;;;5030240;28;20057;-79
2022/02/18 06:43:03;;;;;;;14.15;2.90;;;9.30;99.90;;;;;;5028012;28;20056;-78
2022/02/18 06:45:28;;;;;;;13.48;3.30;;;9.40;99.90;;;;;;5029498;28;20085;-77
2022/02/18 06:47:54;;;;;;;15.60;2.70;;;9.40;99.90;;;;;;5031981;28;20029;-77
2022/02/18 06:50:20;;;;;;;14.48;3.13;;;9.50;99.90;;;;;;5036273;28;20025;-77
2022/02/18 06:52:48;;;;;;;8.15;2.20;;;9.50;99.90;;;;;;5039066;28;20032;-77
2022/02/18 06:55:14;;;;;;;16.75;3.33;;;9.40;99.90;;;;;;5036887;28;20115;-79
2022/02/18 06:57:42;;;;;;;7.53;1.85;;;9.50;99.90;;;;;;5044957;28;20025;-78
2022/02/18 07:00:10;;;;;;;17.42;3.00;;;9.50;99.90;;;;;;5039159;28;20022;-77
2022/02/18 07:02:36;;;;;;;10.68;2.50;;;9.60;99.90;;;;;;5035594;28;20029;-77
2022/02/18 07:05:02;;;;;;;14.15;2.72;;;9.60;99.90;;;;;;5038269;28;20038;-77
2022/02/18 07:07:27;;;;;;;12.13;2.63;;;9.60;99.90;;;;;;5044395;28;20165;-76
2022/02/18 07:09:53;;;;;;;15.45;3.60;;;9.70;99.90;;;;;;5030984;28;20045;-78
2022/02/18 07:12:19;;;;;;;14.38;2.90;;;9.70;99.90;;;;;;5039807;28;20033;-77
2022/02/18 07:14:45;;;;;;;14.98;2.92;;;9.70;99.90;;;;;;5035429;28;20110;-77
2022/02/18 07:17:11;;;;;;;13.35;3.15;;;9.80;99.90;;;;;;5032688;28;20066;-78
2022/02/18 07:19:36;;;;;;;11.75;2.10;;;9.70;99.90;;;;;;5043486;28;20117;-78
2022/02/18 07:22:02;;;;;;;15.48;3.13;;;9.80;99.90;;;;;;5042091;28;20091;-77
2022/02/18 07:24:28;;;;;;;13.27;2.28;;;9.80;99.90;;;;;;5044123;28;20014;-77
2022/02/18 07:26:53;;;;;;;11.30;3.03;;;9.90;99.90;;;;;;5031119;28;20028;-78
2022/02/18 07:29:19;;;;;;;10.13;3.20;;;10.00;99.90;;;;;;5040655;28;20044;-77
2022/02/18 07:31:45;;;;;;;9.43;2.20;;;10.00;99.90;;;;;;5035861;28;20083;-78
2022/02/18 07:34:10;;;;;;;12.07;2.55;;;10.10;99.90;;;;;;5034412;28;20125;-78
2022/02/18 07:36:36;;;;;;;9.95;2.05;;;10.10;99.90;;;;;;5045702;28;20037;-79
2022/02/18 07:39:01;;;;;;;12.80;2.85;;;10.10;99.90;;;;;;5044507;28;20052;-78
2022/02/18 07:41:27;;;;;;;8.98;2.92;;;10.20;99.90;;;;;;5037918;28;20033;-77
2022/02/18 07:43:52;;;;;;;11.00;2.15;;;10.20;99.90;;;;;;5029492;28;20041;-77
2022/02/18 07:46:18;;;;;;;9.27;2.78;;;10.30;99.90;;;;;;5041143;28;20121;-79
2022/02/18 07:48:44;;;;;;;6.60;3.05;;;10.30;99.90;;;;;;5033225;28;20046;-77
2022/02/18 07:51:09;;;;;;;12.05;2.75;;;10.20;99.90;;;;;;5033278;28;20458;-78
2022/02/18 07:53:35;;;;;;;7.57;2.63;;;10.20;99.90;;;;;;5038398;28;20055;-78
2022/02/18 07:56:02;;;;;;;14.43;2.53;;;10.20;99.90;;;;;;5034263;28;20099;-77
2022/02/18 07:58:27;;;;;;;9.50;2.75;;;10.30;99.90;;;;;;5033745;28;20029;-78
2022/02/18 08:00:53;;;;;;;10.30;3.08;;;10.30;99.90;;;;;;5042496;28;20044;-75
2022/02/18 08:03:19;;;;;;;8.90;2.00;;;10.40;99.90;;;;;;5051649;28;20029;-76
2022/02/18 08:05:44;;;;;;;12.40;2.50;;;10.40;99.90;;;;;;5045488;28;20387;-77
2022/02/18 08:08:10;;;;;;;9.95;2.10;;;10.40;99.90;;;;;;5033990;28;20030;-78
2022/02/18 08:10:35;;;;;;;7.43;1.73;;;10.50;99.90;;;;;;5035220;28;21167;-77
2022/02/18 08:13:01;;;;;;;7.38;1.80;;;10.60;99.90;;;;;;5036479;28;20033;-78
2022/02/18 08:15:26;;;;;;;7.45;2.67;;;10.70;99.90;;;;;;5039994;28;20037;-77
2022/02/18 08:17:52;;;;;;;10.63;2.10;;;10.70;99.90;;;;;;5031526;28;20033;-78
2022/02/18 08:20:17;;;;;;;8.55;2.47;;;10.80;99.90;;;;;;5049666;28;20035;-76
2022/02/18 08:22:43;;;;;;;7.97;1.95;;;10.90;99.90;;;;;;5054448;28;20032;-77
2022/02/18 08:25:10;;;;;;;8.88;1.63;;;10.90;99.90;;;;;;5038007;28;20061;-78
2022/02/18 08:27:36;;;;;;;6.97;2.05;;;11.10;99.90;;;;;;5037439;28;20436;-77
2022/02/18 08:30:04;;;;;;;8.73;2.70;;;11.10;99.90;;;;;;5050232;28;20116;-77
2022/02/18 08:32:30;;;;;;;5.18;1.42;;;11.10;99.90;;;;;;5045673;28;20104;-77
2022/02/18 08:34:56;;;;;;;6.88;1.63;;;11.20;99.90;;;;;;5034276;28;20065;-76
2022/02/18 08:37:22;;;;;;;7.90;1.75;;;11.30;99.90;;;;;;5036275;28;20035;-77
2022/02/18 08:39:48;;;;;;;4.65;1.20;;;11.40;99.90;;;;;;5035072;28;20022;-78
2022/02/18 08:42:14;;;;;;;9.20;1.40;;;11.40;99.90;;;;;;5042920;28;20029;-79
2022/02/18 08:44:39;;;;;;;10.15;2.88;;;11.50;99.90;;;;;;5039022;28;20025;-80
2022/02/18 08:47:06;;;;;;;6.28;1.40;;;11.50;99.90;;;;;;5040382;28;20087;-80
2022/02/18 08:49:33;;;;;;;8.70;2.05;;;11.50;99.90;;;;;;5037491;28;20099;-78
2022/02/18 08:51:58;;;;;;;3.55;1.10;;;11.70;99.90;;;;;;5049329;28;20035;-78
2022/02/18 08:54:24;;;;;;;3.03;0.80;;;11.80;99.90;;;;;;5034427;28;20101;-77
2022/02/18 08:56:49;;;;;;;5.90;1.23;;;11.90;99.90;;;;;;5042320;28;20049;-78
2022/02/18 08:59:16;;;;;;;3.63;1.33;;;11.90;99.90;;;;;;5039389;28;20037;-79
2022/02/18 09:01:41;;;;;;;4.20;1.13;;;12.00;99.90;;;;;;5033227;28;20028;-79
2022/02/18 09:04:09;;;;;;;4.97;1.27;;;12.20;99.90;;;;;;5035230;28;20025;-77
2022/02/18 09:06:34;;;;;;;2.75;1.00;;;12.40;99.90;;;;;;5041915;28;20073;-78
2022/02/18 09:09:00;;;;;;;3.30;1.55;;;12.60;99.90;;;;;;5034840;28;20025;-79
2022/02/18 09:11:26;;;;;;;11.27;2.35;;;12.70;99.90;;;;;;5034766;28;20041;-79
2022/02/18 09:13:51;;;;;;;5.35;1.52;;;12.70;99.90;;;;;;5033722;28;20066;-79
2022/02/18 09:16:19;;;;;;;3.55;0.82;;;12.80;99.90;;;;;;5036163;28;20038;-78
2022/02/18 09:18:45;;;;;;;4.25;1.30;;;12.80;99.90;;;;;;5033233;28;20029;-79
2022/02/18 09:21:11;;;;;;;3.20;0.90;;;12.80;99.90;;;;;;5032818;28;20052;-77
2022/02/18 09:23:37;;;;;;;4.75;0.93;;;12.80;99.90;;;;;;5043485;28;20018;-77
2022/02/18 09:26:03;;;;;;;4.20;1.40;;;12.80;99.90;;;;;;5039776;28;20036;-77
2022/02/18 09:28:29;;;;;;;7.75;1.42;;;12.90;99.90;;;;;;5051016;28;20152;-77
2022/02/18 09:30:55;;;;;;;4.60;0.85;;;13.10;99.90;;;;;;5033445;28;20137;-77
2022/02/18 09:33:21;;;;;;;7.78;1.17;;;13.10;99.90;;;;;;5039826;28;20013;-78
2022/02/18 09:35:47;;;;;;;2.63;1.05;;;13.10;99.90;;;;;;5053829;28;20028;-81
2022/02/18 09:38:13;;;;;;;4.20;1.08;;;13.20;99.90;;;;;;5039494;28;20426;-78
2022/02/18 09:40:40;;;;;;;2.33;0.90;;;13.50;99.90;;;;;;5059488;28;20026;-77
2022/02/18 09:43:07;;;;;;;4.28;2.22;;;13.60;99.90;;;;;;5053569;28;20102;-78
2022/02/18 09:45:33;;;;;;;3.95;0.85;;;13.70;99.90;;;;;;5050193;28;20021;-77
2022/02/18 09:47:59;;;;;;;4.20;0.98;;;13.70;99.90;;;;;;5047428;28;20030;-77
2022/02/18 09:50:26;;;;;;;3.15;0.93;;;13.80;99.90;;;;;;5048945;28;20045;-77
2022/02/18 09:52:52;;;;;;;2.08;0.70;;;13.90;99.90;;;;;;5054133;28;20017;-78
2022/02/18 09:55:17;;;;;;;1.92;0.70;;;14.00;99.90;;;;;;5052471;28;20089;-78
2022/02/18 09:57:48;;;;;;;1.58;0.90;;;14.10;99.90;;;;;;5049146;28;20044;-76
2022/02/18 10:00:14;;;;;;;2.88;0.70;;;14.10;99.90;;;;;;5036361;28;20398;-77
2022/02/18 10:02:40;;;;;;;3.67;1.00;;;14.30;99.90;;;;;;5030995;28;20026;-77
2022/02/18 10:05:07;;;;;;;7.75;1.35;;;14.40;99.90;;;;;;5027197;28;20021;-76
2022/02/18 10:07:33;;;;;;;2.72;0.80;;;14.50;99.90;;;;;;5036617;28;20028;-78
2022/02/18 10:09:59;;;;;;;2.40;0.82;;;14.60;99.90;;;;;;5046215;28;20040;-77
2022/02/18 10:12:35;;;;;;;3.10;0.73;;;14.70;99.90;;;;;;5050080;28;20050;-77
2022/02/18 10:15:09;;;;;;;3.13;0.85;;;14.80;99.90;;;;;;5045253;28;20037;-77
2022/02/18 10:17:47;;;;;;;4.72;0.90;;;14.90;99.90;;;;;;5052628;28;20089;-77
2022/02/18 10:20:20;;;;;;;1.17;1.10;;;14.90;99.90;;;;;;5063428;28;20143;-77
2022/02/18 10:23:12;;;;;;;4.70;1.63;;;15.10;99.90;;;;;;5045610;28;20065;-77
2022/02/18 10:25:41;;;;;;;2.08;0.70;;;15.20;99.90;;;;;;5051329;28;20528;-78
2022/02/18 10:28:10;;;;;;;5.40;0.85;;;15.50;99.90;;;;;;5044268;28;20018;-77
2022/02/18 10:30:36;;;;;;;3.92;0.82;;;15.60;99.90;;;;;;5044181;28;20100;-76
2022/02/18 10:33:22;;;;;;;2.10;1.25;;;15.80;99.90;;;;;;5030298;28;20527;-77
2022/02/18 10:35:58;;;;;;;4.65;0.93;;;16.20;99.90;;;;;;5033787;28;20025;-78
2022/02/18 10:38:35;;;;;;;4.80;0.70;;;16.30;99.90;;;;;;5051381;28;20666;-79
2022/02/18 10:41:20;;;;;;;2.58;0.90;;;16.30;99.90;;;;;;5047627;28;20026;-78
2022/02/18 10:43:46;;;;;;;3.75;1.05;;;16.30;99.90;;;;;;5035202;28;20018;-78
2022/02/18 10:46:12;;;;;;;7.20;1.25;;;16.50;99.90;;;;;;5030042;28;20029;-77
2022/02/18 10:48:49;;;;;;;2.78;0.80;;;16.40;99.90;;;;;;5035676;28;20374;-79
2022/02/18 10:51:24;;;;;;;1.42;0.82;;;16.20;99.90;;;;;;5033442;28;20032;-81
2022/02/18 10:53:51;;;;;;;1.67;0.60;;;16.10;99.90;;;;;;5044422;28;20025;-79
2022/02/18 10:56:19;;;;;;;1.92;0.70;;;16.10;99.90;;;;;;5042964;28;20028;-78
2022/02/18 10:58:50;;;;;;;3.80;0.88;;;16.40;99.90;;;;;;5033630;28;20029;-78
2022/02/18 11:01:16;;;;;;;;;;;16.60;99.90;;;;;;5040657;28;20486;-78
2022/02/18 11:03:44;;;;;;;3.05;0.77;;;16.70;99.90;;;;;;5050271;28;20454;-78
2022/02/18 11:06:14;;;;;;;2.92;0.50;;;16.90;99.90;;;;;;5035734;28;20022;-78
2022/02/18 11:08:54;;;;;;;0.75;0.40;;;17.00;99.90;;;;;;5035536;28;20026;-78
2022/02/18 11:11:32;;;;;;;2.40;0.60;;;17.10;99.90;;;;;;5033088;28;20051;-78
2022/02/18 11:14:00;;;;;;;1.02;0.50;;;17.30;99.90;;;;;;5027500;28;20053;-78
2022/02/18 11:16:27;;;;;;;2.30;0.57;;;17.50;99.90;;;;;;5024714;28;20087;-78
2022/02/18 11:18:54;;;;;;;1.85;0.70;;;17.70;99.90;;;;;;5035340;28;20022;-78
2022/02/18 11:21:20;;;;;;;1.63;0.63;;;17.60;99.90;;;;;;5041614;28;20029;-78
2022/02/18 11:23:48;;;;;;;2.00;0.65;;;17.50;99.90;;;;;;5029902;28;20025;-79
2022/02/18 11:26:20;;;;;;;4.15;1.10;;;17.60;99.90;;;;;;5030131;28;20014;-78
2022/02/18 11:28:47;;;;;;;3.60;0.50;;;17.50;99.90;;;;;;5030836;28;20078;-78
2022/02/18 11:31:22;;;;;;;2.70;0.73;;;17.60;99.90;;;;;;5040046;28;20041;-78
2022/02/18 11:34:24;;;;;;;3.63;0.70;;;17.50;99.90;;;;;;5034467;28;20022;-77
2022/02/18 11:37:17;;;;;;;2.58;0.80;;;17.40;99.90;;;;;;5036741;28;20021;-79
2022/02/18 11:39:50;;;;;;;3.60;0.77;;;17.10;99.90;;;;;;5038945;28;20025;-80
2022/02/18 11:42:35;;;;;;;2.38;0.60;;;16.90;99.90;;;;;;5037177;28;20022;-78
2022/02/18 11:45:07;;;;;;;1.73;0.73;;;17.00;99.90;;;;;;5036469;28;20214;-78
2022/02/18 11:47:35;;;;;;;3.67;0.73;;;17.30;99.90;;;;;;5039766;28;20013;-78
2022/02/18 11:50:09;;;;;;;3.35;0.70;;;17.40;99.90;;;;;;5034248;28;20025;-78
2022/02/18 11:52:44;;;;;;;3.33;0.70;;;17.60;99.90;;;;;;5031980;28;20025;-79
2022/02/18 11:55:29;;;;;;;4.38;0.60;;;17.60;99.90;;;;;;5034155;28;20032;-77
2022/02/18 11:58:05;;;;;;;3.13;0.60;;;17.80;99.90;;;;;;5039653;28;20029;-78
2022/02/18 12:00:50;;;;;;;8.43;1.25;;;17.70;99.90;;;;;;5038649;28;20017;-80
2022/02/18 12:03:20;;;;;;;2.22;0.90;;;17.90;99.80;;;;;;5039811;28;20022;-78
2022/02/18 12:06:12;;;;;;;0.88;0.60;;;18.00;99.10;;;;;;5028618;28;20030;-78
2022/02/18 12:08:41;;;;;;;3.38;0.70;;;17.60;99.00;;;;;;5025068;28;20014;-78
2022/02/18 12:11:26;;;;;;;2.05;0.52;;;17.60;99.20;;;;;;5030652;28;20042;-77
2022/02/18 12:14:05;;;;;;;2.28;0.90;;;17.40;99.10;;;;;;5025462;28;20028;-78
2022/02/18 12:16:31;;;;;;;1.80;0.70;;;17.30;99.30;;;;;;5028571;28;20029;-78
2022/02/18 12:19:26;;;;;;;3.33;1.33;;;17.30;99.50;;;;;;5031458;28;20021;-77
2022/02/18 12:22:02;;;;;;;1.83;0.60;;;17.20;99.80;;;;;;5034784;28;20025;-78
2022/02/18 12:24:41;;;;;;;2.45;0.60;;;17.30;99.70;;;;;;5028292;28;20017;-78
2022/02/18 12:27:19;;;;;;;3.50;1.02;;;17.50;99.60;;;;;;5029641;28;20029;-77
2022/02/18 12:29:46;;;;;;;3.00;0.60;;;17.60;99.20;;;;;;5037541;28;20033;-77
2022/02/18 12:32:13;;;;;;;3.70;0.50;;;17.40;99.20;;;;;;5038094;28;20025;-79
2022/02/18 12:34:41;;;;;;;2.95;0.50;;;17.40;99.30;;;;;;5033943;28;20057;-78
2022/02/18 12:37:12;;;;;;;2.95;0.52;;;17.40;99.10;;;;;;5034340;28;20041;-78
2022/02/18 12:39:38;;;;;;;;;;;17.40;99.30;;;;;;5040616;28;20080;-77
2022/02/18 12:42:11;;;;;;;3.40;0.63;;;17.40;99.00;;;;;;5044709;28;19976;-77
2022/02/18 12:44:45;;;;;;;2.53;0.95;;;17.40;98.90;;;;;;5035874;28;20042;-78
2022/02/18 12:47:11;;;;;;;1.70;0.63;;;17.40;98.80;;;;;;5035656;28;20036;-78
2022/02/18 12:49:43;;;;;;;5.18;0.50;;;17.30;99.10;;;;;;5027372;28;20029;-79